Terminal Aerodrome Forecast
Issued by NWS

Home | Current Version | Previous Version | Text Only | Print | Product List | Glossary On
Versions: 1 2 3 4 5 6 7 8 9 10 11 12 13 14 15 16 17 18 19 20 21 22 23 24 25 26 27 28 29 30 31
000
FTAK31 PAFA 182103 AAA
TAFAMC
TAF AMD
PAMC 182103Z 1821/1918 30004KT P6SM -RA OVC070
     FM182200 01007KT 4SM -SHRA BR OVC045
     FM190900 VRB03KT 4SM BR VCSH FEW005 OVC050
     FM191400 VRB03KT 3SM -RA BR SCT005 OVC035=

USA.gov is the U.S. government's official web portal to all federal, state and local government web resources and services.